Time;durP1;ratioP1;P1;durP2;ratioP2;P2;SDS_P1;SDS_P2;PMS_P1;PMS_P2;Temp;Humidity;BMP_temperature;BMP_pressure;BME280_temperature;BME280_humidity;BME280_pressure;Samples;Min_cycle;Max_cycle;Signal;HPM_P1;HPM_P2
2023/09/01 00:01:06;;;;;;;1.85;1.20;;;;;;;;;;5068219;28;20112;-78
2023/09/01 00:03:32;;;;;;;1.60;1.50;;;;;;;;;;5051059;28;20036;-78
2023/09/01 00:06:02;;;;;;;3.05;1.10;;;;;;;;;;5050902;28;20090;-78
2023/09/01 00:08:28;;;;;;;2.25;1.30;;;;;;;;;;5067433;28;20035;-78
2023/09/01 00:10:53;;;;;;;3.28;1.23;;;;;;;;;;5052666;28;20033;-78
2023/09/01 00:13:19;;;;;;;1.10;1.00;;;;;;;;;;5052398;28;20061;-78
2023/09/01 00:15:44;;;;;;;3.05;1.17;;;;;;;;;;5052513;28;20037;-78
2023/09/01 00:18:10;;;;;;;1.42;1.13;;;;;;;;;;5067838;28;20025;-78
2023/09/01 00:20:36;;;;;;;1.65;1.20;;;;;;;;;;5052501;28;20151;-78
2023/09/01 00:23:03;;;;;;;1.83;1.40;;;;;;;;;;5052415;28;20120;-78
2023/09/01 00:25:29;;;;;;;1.67;1.10;;;;;;;;;;5034717;28;20029;-78
2023/09/01 00:27:54;;;;;;;1.67;1.10;;;;;;;;;;5034509;28;20075;-78
2023/09/01 00:30:19;;;;;;;1.15;1.05;;;;;;;;;;5051268;28;20519;-78
2023/09/01 00:32:45;;;;;;;1.80;1.35;;;;;;;;;;5067862;28;20059;-78
2023/09/01 00:35:10;;;;;;;2.10;1.10;;;;;;;;;;5052628;28;20535;-78
2023/09/01 00:37:37;;;;;;;4.63;1.35;;;;;;;;;;5052676;28;20035;-78
2023/09/01 00:40:03;;;;;;;3.22;1.30;;;;;;;;;;5070260;28;20063;-78
2023/09/01 00:42:29;;;;;;;1.50;1.27;;;;;;;;;;5071389;28;20056;-78
2023/09/01 00:44:54;;;;;;;1.80;1.00;;;;;;;;;;5056381;28;20425;-78
2023/09/01 00:47:20;;;;;;;0.93;0.93;;;;;;;;;;5055740;28;20099;-78
2023/09/01 00:49:45;;;;;;;1.52;1.20;;;;;;;;;;5054377;28;20480;-78
2023/09/01 00:52:11;;;;;;;1.58;1.20;;;;;;;;;;5055902;28;20033;-78
2023/09/01 00:54:36;;;;;;;1.38;1.30;;;;;;;;;;5055781;28;20029;-78
2023/09/01 00:57:02;;;;;;;2.25;1.13;;;;;;;;;;5071127;28;20122;-77
2023/09/01 00:59:27;;;;;;;2.35;0.95;;;;;;;;;;5071289;28;20036;-77
2023/09/01 01:01:54;;;;;;;1.60;1.38;;;;;;;;;;5054177;28;20495;-77
2023/09/01 01:04:22;;;;;;;1.13;1.00;;;;;;;;;;5071525;28;20032;-78
2023/09/01 01:06:53;;;;;;;1.73;1.13;;;;;;;;;;5054388;28;20116;-77
2023/09/01 01:09:29;;;;;;;1.15;1.05;;;;;;;;;;5070755;28;20032;-77
2023/09/01 01:12:08;;;;;;;1.25;1.15;;;;;;;;;;5055458;28;20078;-77
2023/09/01 01:14:52;;;;;;;1.33;1.10;;;;;;;;;;5070339;28;20444;-78
2023/09/01 01:17:19;;;;;;;2.33;1.38;;;;;;;;;;5070596;28;20021;-78
2023/09/01 01:19:54;;;;;;;1.30;1.20;;;;;;;;;;5037146;28;20050;-78
2023/09/01 01:22:41;;;;;;;1.77;1.23;;;;;;;;;;5070992;28;20043;-77
2023/09/01 01:25:08;;;;;;;2.13;1.15;;;;;;;;;;5055460;28;20047;-77
2023/09/01 01:27:33;;;;;;;2.42;1.13;;;;;;;;;;5055109;28;20033;-80
2023/09/01 01:30:00;;;;;;;1.50;1.00;;;;;;;;;;5053843;28;20025;-80
2023/09/01 01:32:26;;;;;;;1.13;1.00;;;;;;;;;;5055012;28;20028;-79
2023/09/01 01:35:00;;;;;;;2.17;1.17;;;;;;;;;;5070460;28;20104;-79
2023/09/01 01:37:52;;;;;;;2.08;1.30;;;;;;;;;;5055133;28;20029;-79
2023/09/01 01:40:20;;;;;;;1.40;1.10;;;;;;;;;;5030784;28;20561;-79
2023/09/01 01:42:48;;;;;;;2.00;1.42;;;;;;;;;;5054927;28;20044;-78
2023/09/01 01:45:16;;;;;;;2.65;1.20;;;;;;;;;;5036825;28;20064;-78
2023/09/01 01:47:42;;;;;;;1.20;1.10;;;;;;;;;;5054739;28;20483;-78
2023/09/01 01:50:07;;;;;;;1.42;1.15;;;;;;;;;;5054356;28;20033;-79
2023/09/01 01:52:33;;;;;;;1.23;1.10;;;;;;;;;;5069762;28;20033;-79
2023/09/01 01:54:58;;;;;;;2.80;1.40;;;;;;;;;;5036634;28;20033;-79
2023/09/01 01:57:23;;;;;;;1.80;1.30;;;;;;;;;;5054567;28;20040;-79
2023/09/01 01:59:49;;;;;;;1.25;1.08;;;;;;;;;;5069921;28;20029;-79
2023/09/01 02:02:14;;;;;;;1.98;1.10;;;;;;;;;;5054649;28;20025;-79
2023/09/01 02:04:40;;;;;;;1.67;1.10;;;;;;;;;;5054392;28;20029;-79
2023/09/01 02:07:05;;;;;;;1.23;1.08;;;;;;;;;;5054294;28;20025;-79
2023/09/01 02:09:32;;;;;;;1.50;1.08;;;;;;;;;;5054832;28;20124;-80
2023/09/01 02:11:57;;;;;;;1.63;1.23;;;;;;;;;;5069652;28;20037;-79
2023/09/01 02:14:23;;;;;;;2.10;1.20;;;;;;;;;;5054202;28;20052;-79
2023/09/01 02:16:49;;;;;;;1.85;1.30;;;;;;;;;;5054441;28;20052;-79
2023/09/01 02:19:14;;;;;;;4.38;1.23;;;;;;;;;;5053991;28;20039;-79
2023/09/01 02:21:40;;;;;;;1.17;1.08;;;;;;;;;;5054016;28;20123;-79
2023/09/01 02:24:05;;;;;;;1.38;1.10;;;;;;;;;;5069419;28;20027;-79
2023/09/01 02:26:31;;;;;;;1.25;1.15;;;;;;;;;;5053003;28;20475;-79
2023/09/01 02:28:56;;;;;;;2.97;1.30;;;;;;;;;;5052557;28;20033;-79
2023/09/01 02:31:22;;;;;;;1.30;1.20;;;;;;;;;;5069060;28;20087;-79
2023/09/01 02:33:47;;;;;;;1.23;1.08;;;;;;;;;;5053739;28;20039;-79
2023/09/01 02:36:29;;;;;;;2.42;1.08;;;;;;;;;;5053790;28;20033;-79
2023/09/01 02:38:55;;;;;;;1.30;1.20;;;;;;;;;;5069268;28;20068;-79
2023/09/01 02:41:21;;;;;;;1.40;1.20;;;;;;;;;;5069094;28;20041;-79
2023/09/01 02:43:47;;;;;;;1.25;1.15;;;;;;;;;;5053795;28;20074;-79
2023/09/01 02:46:12;;;;;;;2.13;1.50;;;;;;;;;;5036043;28;20033;-79
2023/09/01 02:48:38;;;;;;;2.65;1.27;;;;;;;;;;5052127;28;20480;-79
2023/09/01 02:51:06;;;;;;;1.75;1.13;;;;;;;;;;5068882;28;20032;-79
2023/09/01 02:53:33;;;;;;;2.90;1.40;;;;;;;;;;5068601;28;20498;-79
2023/09/01 02:55:58;;;;;;;1.58;1.25;;;;;;;;;;5068916;28;20029;-79
2023/09/01 02:58:24;;;;;;;1.13;1.02;;;;;;;;;;5053406;28;20035;-78
2023/09/01 03:00:50;;;;;;;2.78;1.30;;;;;;;;;;5052117;28;20467;-79
2023/09/01 03:03:15;;;;;;;3.50;1.50;;;;;;;;;;5067950;28;20034;-78
2023/09/01 03:05:41;;;;;;;1.88;1.25;;;;;;;;;;5069041;28;20079;-78
2023/09/01 03:08:06;;;;;;;1.88;1.23;;;;;;;;;;5053214;28;20052;-78
2023/09/01 03:10:32;;;;;;;2.63;1.20;;;;;;;;;;5068839;28;20531;-78
2023/09/01 03:12:57;;;;;;;1.35;1.25;;;;;;;;;;5035055;28;20033;-79
2023/09/01 03:15:23;;;;;;;1.77;1.27;;;;;;;;;;5053339;28;20484;-78
2023/09/01 03:17:48;;;;;;;1.35;1.20;;;;;;;;;;5053556;28;20032;-78
2023/09/01 03:20:14;;;;;;;1.70;1.38;;;;;;;;;;5035126;28;20029;-78
2023/09/01 03:22:40;;;;;;;2.05;1.30;;;;;;;;;;5068797;28;20029;-78
2023/09/01 03:25:09;;;;;;;1.35;1.25;;;;;;;;;;5035393;28;20029;-78
2023/09/01 03:27:36;;;;;;;1.30;1.20;;;;;;;;;;5053323;28;20484;-78
2023/09/01 03:30:03;;;;;;;2.05;1.30;;;;;;;;;;5053178;28;20025;-78
2023/09/01 03:32:29;;;;;;;1.40;1.20;;;;;;;;;;5052999;28;20052;-78
2023/09/01 03:34:55;;;;;;;1.70;1.40;;;;;;;;;;5069006;28;20034;-78
2023/09/01 03:37:21;;;;;;;1.75;1.15;;;;;;;;;;5053136;28;20032;-78
2023/09/01 03:39:46;;;;;;;2.38;1.50;;;;;;;;;;5068736;28;20021;-78
2023/09/01 03:42:11;;;;;;;1.33;1.15;;;;;;;;;;5052890;28;20465;-78
2023/09/01 03:44:37;;;;;;;2.13;1.52;;;;;;;;;;5052982;28;20021;-78
2023/09/01 03:47:03;;;;;;;1.30;1.20;;;;;;;;;;5051578;28;20029;-78
2023/09/01 03:49:29;;;;;;;3.67;1.45;;;;;;;;;;5051288;28;20029;-78
2023/09/01 03:51:55;;;;;;;2.08;1.50;;;;;;;;;;5068329;28;20025;-78
2023/09/01 03:54:20;;;;;;;4.65;1.30;;;;;;;;;;5068428;28;20040;-78
2023/09/01 03:56:46;;;;;;;1.70;1.40;;;;;;;;;;5068424;28;20476;-78
2023/09/01 03:59:11;;;;;;;1.35;0.98;;;;;;;;;;5068535;28;20024;-78
2023/09/01 04:01:36;;;;;;;1.65;1.55;;;;;;;;;;5052600;28;20099;-78
2023/09/01 04:04:02;;;;;;;3.20;1.63;;;;;;;;;;5068348;28;20029;-78
2023/09/01 04:06:27;;;;;;;1.50;1.40;;;;;;;;;;5053106;28;20032;-78
2023/09/01 04:08:53;;;;;;;3.22;1.63;;;;;;;;;;5068346;28;20025;-78
2023/09/01 04:11:18;;;;;;;1.20;1.10;;;;;;;;;;5068096;28;20033;-77
2023/09/01 04:13:43;;;;;;;2.97;1.85;;;;;;;;;;5031890;28;20079;-78
2023/09/01 04:16:09;;;;;;;5.78;2.13;;;;;;;;;;5036734;28;20535;-78
2023/09/01 04:18:34;;;;;;;4.60;2.00;;;;;;;;;;5036556;28;20036;-78
2023/09/01 04:21:00;;;;;;;5.70;1.90;;;;;;;;;;5068727;28;20025;-78
2023/09/01 04:23:25;;;;;;;3.40;1.80;;;;;;;;;;5068681;28;20100;-78
2023/09/01 04:25:51;;;;;;;5.97;2.42;;;;;;;;;;5068786;28;20544;-78
2023/09/01 04:28:16;;;;;;;3.38;1.73;;;;;;;;;;5037344;28;20021;-80
2023/09/01 04:30:47;;;;;;;3.92;1.90;;;;;;;;;;5037428;28;20109;-78
2023/09/01 04:33:12;;;;;;;6.57;2.28;;;;;;;;;;5069094;28;20022;-77
2023/09/01 04:35:38;;;;;;;4.00;1.85;;;;;;;;;;5070885;28;20087;-78
2023/09/01 04:38:03;;;;;;;5.00;2.03;;;;;;;;;;5037810;28;20029;-77
2023/09/01 04:40:29;;;;;;;5.28;2.50;;;;;;;;;;5068442;28;20033;-78
2023/09/01 04:42:54;;;;;;;5.82;2.50;;;;;;;;;;5068546;28;20025;-77
2023/09/01 04:45:20;;;;;;;5.07;2.50;;;;;;;;;;5034928;28;20469;-78
2023/09/01 04:47:46;;;;;;;7.38;3.15;;;;;;;;;;5036279;28;20037;-77
2023/09/01 04:50:11;;;;;;;7.22;2.50;;;;;;;;;;5051185;28;20132;-77
2023/09/01 04:52:36;;;;;;;7.35;2.63;;;;;;;;;;5035997;28;20031;-77
2023/09/01 04:55:06;;;;;;;4.65;2.95;;;;;;;;;;5035796;28;20064;-78
2023/09/01 04:57:31;;;;;;;6.95;3.10;;;;;;;;;;5067236;28;20084;-77
2023/09/01 04:59:57;;;;;;;6.22;2.80;;;;;;;;;;5051305;28;20025;-77
2023/09/01 05:02:22;;;;;;;7.28;2.80;;;;;;;;;;5036240;28;20030;-77
2023/09/01 05:04:48;;;;;;;6.68;3.03;;;;;;;;;;5052143;28;20068;-77
2023/09/01 05:07:13;;;;;;;4.97;2.53;;;;;;;;;;5068125;28;20025;-77
2023/09/01 05:09:39;;;;;;;6.93;2.90;;;;;;;;;;5068007;28;20037;-77
2023/09/01 05:12:05;;;;;;;5.15;2.55;;;;;;;;;;5067890;28;20033;-77
2023/09/01 05:14:30;;;;;;;6.32;2.28;;;;;;;;;;5048461;28;20077;-77
2023/09/01 05:16:56;;;;;;;9.90;2.45;;;;;;;;;;5055768;28;20090;-77
2023/09/01 05:19:21;;;;;;;6.80;2.40;;;;;;;;;;5037305;28;20033;-77
2023/09/01 05:21:48;;;;;;;8.70;2.83;;;;;;;;;;5054005;28;20159;-77
2023/09/01 05:24:13;;;;;;;7.72;2.65;;;;;;;;;;5070537;28;20395;-77
2023/09/01 05:26:38;;;;;;;5.80;2.40;;;;;;;;;;5054111;28;20032;-77
2023/09/01 05:29:04;;;;;;;3.47;2.35;;;;;;;;;;5055375;28;20524;-77
2023/09/01 05:31:29;;;;;;;4.22;2.20;;;;;;;;;;5037242;28;20036;-78
2023/09/01 05:33:55;;;;;;;8.13;2.75;;;;;;;;;;5055471;28;20084;-77
2023/09/01 05:36:20;;;;;;;5.07;2.60;;;;;;;;;;5070470;28;20391;-77
2023/09/01 05:38:45;;;;;;;5.85;2.60;;;;;;;;;;5070572;28;20045;-77
2023/09/01 05:41:12;;;;;;;4.35;2.10;;;;;;;;;;5037555;28;20029;-76
2023/09/01 05:43:38;;;;;;;4.85;2.28;;;;;;;;;;5070318;28;20047;-77
2023/09/01 05:46:03;;;;;;;4.93;2.45;;;;;;;;;;5053573;28;20120;-77
2023/09/01 05:48:29;;;;;;;6.88;2.80;;;;;;;;;;5070348;28;20033;-77
2023/09/01 05:50:54;;;;;;;4.45;2.67;;;;;;;;;;5053396;28;20456;-77
2023/09/01 05:53:21;;;;;;;8.20;2.50;;;;;;;;;;5070492;28;20031;-78
2023/09/01 05:55:47;;;;;;;5.15;2.47;;;;;;;;;;5070202;28;20099;-77
2023/09/01 05:58:12;;;;;;;4.93;2.47;;;;;;;;;;5036759;28;20073;-78
2023/09/01 06:00:38;;;;;;;7.25;2.28;;;;;;;;;;5070321;28;20043;-76
2023/09/01 06:03:04;;;;;;;5.50;2.13;;;;;;;;;;5069930;28;20027;-77
2023/09/01 06:05:30;;;;;;;7.22;2.55;;;;;;;;;;5054568;28;20029;-78
2023/09/01 06:07:55;;;;;;;5.53;2.55;;;;;;;;;;5053183;28;20060;-77
2023/09/01 06:10:21;;;;;;;4.47;2.45;;;;;;;;;;5054765;28;20029;-77
2023/09/01 06:12:46;;;;;;;5.53;2.53;;;;;;;;;;5053331;28;20519;-78
2023/09/01 06:15:12;;;;;;;5.55;2.58;;;;;;;;;;5054237;28;20071;-78
2023/09/01 06:17:37;;;;;;;6.65;2.33;;;;;;;;;;5036339;28;20033;-78
2023/09/01 06:20:07;;;;;;;3.88;2.33;;;;;;;;;;5071896;28;20025;-77
2023/09/01 06:22:33;;;;;;;11.13;2.67;;;;;;;;;;5055312;28;20029;-78
2023/09/01 06:24:59;;;;;;;4.70;2.20;;;;;;;;;;5070556;28;20017;-78
2023/09/01 06:27:24;;;;;;;6.38;2.72;;;;;;;;;;5036457;28;20033;-78
2023/09/01 06:29:49;;;;;;;6.07;2.53;;;;;;;;;;5036322;28;20055;-77
2023/09/01 06:32:15;;;;;;;2.88;2.10;;;;;;;;;;5069645;28;20037;-77
2023/09/01 06:34:40;;;;;;;4.55;2.40;;;;;;;;;;5054259;28;20090;-77
2023/09/01 06:37:06;;;;;;;5.32;2.38;;;;;;;;;;5054232;28;20033;-77
2023/09/01 06:39:31;;;;;;;9.65;3.78;;;;;;;;;;5054138;28;20025;-78
2023/09/01 06:41:57;;;;;;;14.77;4.85;;;;;;;;;;5036074;28;20056;-77
2023/09/01 06:44:22;;;;;;;13.98;4.90;;;;;;;;;;5069235;28;20036;-77
2023/09/01 06:46:48;;;;;;;13.10;4.50;;;;;;;;;;5053901;28;20032;-77
2023/09/01 06:49:15;;;;;;;12.65;4.35;;;;;;;;;;5035836;28;20040;-77
2023/09/01 06:51:40;;;;;;;11.27;4.25;;;;;;;;;;5035822;28;20033;-76
2023/09/01 06:54:06;;;;;;;13.57;4.05;;;;;;;;;;5053670;28;20039;-77
2023/09/01 06:56:31;;;;;;;13.18;4.40;;;;;;;;;;5053723;28;20108;-77
2023/09/01 06:58:56;;;;;;;11.63;4.47;;;;;;;;;;5035756;28;20043;-77
2023/09/01 07:01:22;;;;;;;12.05;4.32;;;;;;;;;;5053766;28;20024;-77
2023/09/01 07:03:47;;;;;;;13.65;4.30;;;;;;;;;;5053725;28;20025;-78
2023/09/01 07:06:13;;;;;;;15.45;4.93;;;;;;;;;;5035544;28;20450;-77
2023/09/01 07:08:38;;;;;;;12.93;4.80;;;;;;;;;;5053559;28;20029;-78
2023/09/01 07:11:06;;;;;;;11.73;4.35;;;;;;;;;;5053321;28;20037;-77
2023/09/01 07:13:31;;;;;;;10.43;4.30;;;;;;;;;;5068697;28;20052;-78
2023/09/01 07:15:57;;;;;;;13.43;4.45;;;;;;;;;;5065292;28;20049;-78
2023/09/01 07:18:23;;;;;;;11.00;4.45;;;;;;;;;;5048724;28;20048;-77
2023/09/01 07:20:50;;;;;;;11.57;3.95;;;;;;;;;;5048775;28;20430;-77
2023/09/01 07:23:15;;;;;;;9.65;4.05;;;;;;;;;;5048673;28;20059;-77
2023/09/01 07:25:43;;;;;;;13.65;4.68;;;;;;;;;;5065842;28;20419;-78
2023/09/01 07:28:08;;;;;;;8.77;3.60;;;;;;;;;;5048468;28;20112;-77
2023/09/01 07:30:33;;;;;;;8.93;3.58;;;;;;;;;;5033308;28;20108;-77
2023/09/01 07:32:59;;;;;;;7.85;3.80;;;;;;;;;;5033245;28;20487;-77
2023/09/01 07:35:25;;;;;;;8.68;3.40;;;;;;;;;;5065586;28;20462;-78
2023/09/01 07:37:50;;;;;;;10.40;3.55;;;;;;;;;;5033390;28;20116;-78
2023/09/01 07:40:16;;;;;;;7.30;3.63;;;;;;;;;;5032737;28;20036;-77
2023/09/01 07:42:41;;;;;;;7.60;3.35;;;;;;;;;;5033290;28;20108;-78
2023/09/01 07:45:07;;;;;;;6.10;2.95;;;;;;;;;;5033201;28;20029;-78
2023/09/01 07:47:33;;;;;;;9.30;3.35;;;;;;;;;;5032164;28;20034;-77
2023/09/01 07:49:58;;;;;;;4.45;2.85;;;;;;;;;;5034453;28;20022;-77
2023/09/01 07:52:23;;;;;;;7.13;3.20;;;;;;;;;;5035811;28;20029;-78
2023/09/01 07:54:49;;;;;;;8.75;2.95;;;;;;;;;;5069189;28;20057;-78
2023/09/01 07:57:15;;;;;;;6.03;2.83;;;;;;;;;;5035810;28;20036;-77
2023/09/01 07:59:40;;;;;;;6.60;2.88;;;;;;;;;;5069410;28;20052;-78
2023/09/01 08:02:06;;;;;;;6.75;2.60;;;;;;;;;;5037228;28;20593;-78
2023/09/01 08:04:31;;;;;;;6.28;3.00;;;;;;;;;;5069013;28;20388;-77
2023/09/01 08:06:58;;;;;;;5.53;2.65;;;;;;;;;;5069113;28;20064;-77
2023/09/01 08:09:24;;;;;;;5.90;2.92;;;;;;;;;;5036990;28;20108;-78
2023/09/01 08:11:50;;;;;;;6.60;2.40;;;;;;;;;;5037051;28;20575;-78
2023/09/01 08:14:15;;;;;;;5.43;2.60;;;;;;;;;;5052068;28;20036;-78
2023/09/01 08:16:41;;;;;;;5.30;2.33;;;;;;;;;;5068639;28;20508;-78
2023/09/01 08:19:06;;;;;;;6.05;3.05;;;;;;;;;;5051929;28;20396;-78
2023/09/01 08:21:33;;;;;;;5.65;2.38;;;;;;;;;;5068638;28;20046;-77
2023/09/01 08:23:58;;;;;;;4.30;2.30;;;;;;;;;;5036805;28;20037;-78
2023/09/01 08:26:24;;;;;;;5.85;3.03;;;;;;;;;;5068893;28;20392;-77
2023/09/01 08:28:49;;;;;;;3.58;2.03;;;;;;;;;;5068911;28;20029;-77
2023/09/01 08:31:14;;;;;;;5.97;2.60;;;;;;;;;;5035111;28;20063;-77
2023/09/01 08:33:41;;;;;;;4.68;2.20;;;;;;;;;;5036560;28;20076;-77
2023/09/01 08:36:07;;;;;;;5.65;2.28;;;;;;;;;;5036678;28;20029;-77
2023/09/01 08:38:32;;;;;;;4.88;2.05;;;;;;;;;;5035242;28;20036;-78
2023/09/01 08:41:07;;;;;;;6.45;2.67;;;;;;;;;;5036223;28;20036;-78
2023/09/01 08:43:39;;;;;;;3.72;1.77;;;;;;;;;;5036348;28;20033;-78
2023/09/01 08:46:06;;;;;;;4.35;2.20;;;;;;;;;;5035382;28;20104;-78
2023/09/01 08:48:32;;;;;;;2.75;1.83;;;;;;;;;;5068425;28;20564;-78
2023/09/01 08:50:58;;;;;;;4.70;2.10;;;;;;;;;;5068410;28;20120;-77
2023/09/01 08:53:25;;;;;;;4.20;2.17;;;;;;;;;;5034796;28;20089;-77
2023/09/01 08:55:50;;;;;;;4.15;2.00;;;;;;;;;;5068193;28;20025;-77
2023/09/01 08:58:17;;;;;;;4.20;1.98;;;;;;;;;;5068078;28;20160;-77
2023/09/01 09:00:43;;;;;;;7.20;2.63;;;;;;;;;;5034770;28;20029;-78
2023/09/01 09:03:11;;;;;;;4.75;1.90;;;;;;;;;;5068857;28;20029;-78
2023/09/01 09:05:37;;;;;;;5.50;2.63;;;;;;;;;;5036079;28;20033;-78
2023/09/01 09:08:07;;;;;;;4.07;2.13;;;;;;;;;;5067844;28;20087;-78
2023/09/01 09:10:41;;;;;;;6.25;2.40;;;;;;;;;;5051742;28;20065;-78
2023/09/01 09:13:26;;;;;;;3.30;2.10;;;;;;;;;;5051085;28;20105;-78
2023/09/01 09:16:12;;;;;;;3.15;2.17;;;;;;;;;;5047183;28;20045;-78
2023/09/01 09:18:42;;;;;;;5.05;1.98;;;;;;;;;;5071000;28;20028;-77
2023/09/01 09:21:27;;;;;;;2.88;1.75;;;;;;;;;;5055473;28;20430;-78
2023/09/01 09:23:54;;;;;;;3.55;2.08;;;;;;;;;;5071274;28;20021;-79
2023/09/01 09:26:27;;;;;;;5.43;2.60;;;;;;;;;;5071182;28;20559;-78
2023/09/01 09:28:53;;;;;;;4.43;2.22;;;;;;;;;;5071089;28;20029;-78
2023/09/01 09:31:27;;;;;;;4.18;2.22;;;;;;;;;;5070661;28;20036;-78
2023/09/01 09:33:53;;;;;;;4.07;2.40;;;;;;;;;;5070511;28;20056;-78
2023/09/01 09:36:31;;;;;;;3.95;1.90;;;;;;;;;;5070620;28;20029;-78
2023/09/01 09:38:56;;;;;;;3.65;2.20;;;;;;;;;;5055297;28;20468;-78
2023/09/01 09:41:22;;;;;;;3.40;1.95;;;;;;;;;;5055140;28;20052;-78
2023/09/01 09:43:49;;;;;;;4.38;2.10;;;;;;;;;;5054876;28;20060;-78
2023/09/01 09:46:15;;;;;;;4.20;2.00;;;;;;;;;;5070482;28;20086;-78
2023/09/01 09:48:41;;;;;;;2.20;1.65;;;;;;;;;;5070039;28;20043;-76
2023/09/01 09:51:08;;;;;;;3.08;2.10;;;;;;;;;;5036638;28;20030;-78
2023/09/01 09:53:38;;;;;;;5.07;2.40;;;;;;;;;;5036650;28;20025;-78
2023/09/01 09:56:33;;;;;;;2.97;2.00;;;;;;;;;;5054596;28;20036;-78
2023/09/01 09:59:03;;;;;;;3.42;1.80;;;;;;;;;;5031165;28;20405;-78
2023/09/01 10:01:31;;;;;;;3.20;1.92;;;;;;;;;;5069736;28;20028;-77
2023/09/01 10:03:58;;;;;;;44.08;3.13;;;;;;;;;;5069723;28;20066;-78
2023/09/01 10:06:23;;;;;;;4.90;2.35;;;;;;;;;;5054460;28;20200;-77
2023/09/01 10:08:51;;;;;;;2.50;1.90;;;;;;;;;;5069831;28;20532;-77
2023/09/01 10:11:17;;;;;;;7.85;1.85;;;;;;;;;;5069435;28;20383;-78
2023/09/01 10:13:47;;;;;;;5.35;1.70;;;;;;;;;;5070325;28;20033;-77
2023/09/01 10:16:13;;;;;;;2.97;1.67;;;;;;;;;;5069362;28;20051;-77
2023/09/01 10:18:42;;;;;;;3.70;1.83;;;;;;;;;;5069866;28;20048;-78
2023/09/01 10:21:07;;;;;;;3.00;1.73;;;;;;;;;;5053091;28;20017;-78
2023/09/01 10:23:33;;;;;;;3.30;1.80;;;;;;;;;;5036554;28;20033;-78
2023/09/01 10:26:31;;;;;;;3.13;1.85;;;;;;;;;;5054462;28;20048;-77
2023/09/01 10:29:04;;;;;;;3.47;1.90;;;;;;;;;;5021053;28;20085;-78
2023/09/01 10:31:30;;;;;;;3.60;2.05;;;;;;;;;;5053027;28;20438;-77
2023/09/01 10:34:10;;;;;;;3.63;1.65;;;;;;;;;;5037920;28;20472;-78
2023/09/01 10:36:37;;;;;;;9.30;2.10;;;;;;;;;;5071211;28;20024;-78
2023/09/01 10:39:32;;;;;;;3.45;1.60;;;;;;;;;;5054647;28;20037;-78
2023/09/01 10:41:58;;;;;;;3.15;1.83;;;;;;;;;;5025701;28;20099;-78
2023/09/01 10:44:44;;;;;;;2.17;1.70;;;;;;;;;;5073382;28;20021;-78
2023/09/01 10:47:32;;;;;;;6.28;2.47;;;;;;;;;;5063196;28;20082;-78
2023/09/01 10:50:02;;;;;;;3.65;2.03;;;;;;;;;;5040308;28;20112;-77
2023/09/01 10:52:28;;;;;;;5.20;2.03;;;;;;;;;;5039268;28;20024;-77
2023/09/01 10:54:59;;;;;;;3.88;2.30;;;;;;;;;;5055411;28;20033;-79
2023/09/01 10:57:45;;;;;;;4.78;2.20;;;;;;;;;;5056023;28;20024;-78
2023/09/01 11:00:34;;;;;;;4.68;2.30;;;;;;;;;;5070311;28;20021;-77
2023/09/01 11:03:30;;;;;;;5.18;2.25;;;;;;;;;;5054008;28;20021;-77
2023/09/01 11:06:01;;;;;;;5.97;2.45;;;;;;;;;;5070099;28;20029;-78
2023/09/01 11:08:27;;;;;;;3.55;2.03;;;;;;;;;;5053367;28;20406;-78
2023/09/01 11:11:00;;;;;;;5.57;2.67;;;;;;;;;;5052505;28;20025;-78
2023/09/01 11:13:26;;;;;;;4.72;2.50;;;;;;;;;;5036566;28;20033;-77
2023/09/01 11:15:52;;;;;;;3.72;2.13;;;;;;;;;;5053483;28;20411;-78
2023/09/01 11:18:22;;;;;;;4.53;2.08;;;;;;;;;;5068907;28;20021;-78
2023/09/01 11:20:50;;;;;;;5.32;2.28;;;;;;;;;;5052046;28;20027;-78
2023/09/01 11:23:20;;;;;;;4.93;2.60;;;;;;;;;;5051320;28;20036;-77
2023/09/01 11:26:08;;;;;;;6.32;2.60;;;;;;;;;;5051890;28;20033;-78
2023/09/01 11:28:33;;;;;;;3.90;2.20;;;;;;;;;;5053500;28;20036;-78
2023/09/01 11:31:03;;;;;;;6.55;2.75;;;;;;;;;;5053138;28;20029;-77
2023/09/01 11:33:33;;;;;;;3.67;2.10;;;;;;;;;;5053273;28;20086;-77
2023/09/01 11:36:06;;;;;;;3.97;2.08;;;;;;;;;;5068206;28;20025;-77
2023/09/01 11:38:32;;;;;;;5.80;2.30;;;;;;;;;;5068692;28;20384;-77
2023/09/01 11:40:58;;;;;;;5.43;1.90;;;;;;;;;;5035435;28;20033;-77
2023/09/01 11:43:24;;;;;;;4.47;2.35;;;;;;;;;;5035238;28;20031;-76
2023/09/01 11:45:50;;;;;;;3.95;2.28;;;;;;;;;;5053378;28;20036;-77
2023/09/01 11:48:25;;;;;;;5.07;2.90;;;;;;;;;;5069098;28;20028;-77
2023/09/01 11:50:53;;;;;;;5.07;3.00;;;;;;;;;;5063985;28;20481;-78
2023/09/01 11:53:27;;;;;;;3.28;2.00;;;;;;;;;;5026648;28;20013;-78
2023/09/01 11:55:58;;;;;;;;;;;;;;;;;;5018524;28;20029;-78
2023/09/01 11:58:23;;;;;;;5.15;1.70;;;;;;;;;;5015826;28;20004;-78
2023/09/01 12:00:49;;;;;;;4.35;2.17;;;;;;;;;;5015201;28;20436;-78
2023/09/01 12:03:20;;;;;;;6.22;2.15;;;;;;;;;;5015029;28;20073;-78
2023/09/01 12:05:46;;;;;;;5.82;2.33;;;;;;;;;;5015488;28;20079;-78
2023/09/01 12:08:11;;;;;;;4.00;2.22;;;;;;;;;;5033305;28;20033;-78
2023/09/01 12:10:37;;;;;;;6.35;3.72;;;;;;;;;;5015812;28;20511;-79
2023/09/01 12:13:10;;;;;;;6.40;2.13;;;;;;;;;;5015342;28;20100;-78
2023/09/01 12:15:59;;;;;;;3.53;2.10;;;;;;;;;;5015325;28;20543;-78
2023/09/01 12:18:28;;;;;;;5.97;2.70;;;;;;;;;;5015283;28;20049;-77
2023/09/01 12:20:53;;;;;;;4.85;3.22;;;;;;;;;;5015261;28;20044;-78
2023/09/01 12:23:29;;;;;;;7.70;3.08;;;;;;;;;;5015334;28;20021;-77
2023/09/01 12:25:55;;;;;;;4.97;2.75;;;;;;;;;;4998825;28;20473;-78
2023/09/01 12:28:23;;;;;;;4.50;3.10;;;;;;;;;;4998860;28;20033;-78
2023/09/01 12:30:51;;;;;;;7.45;3.17;;;;;;;;;;5015347;28;20032;-78
2023/09/01 12:33:17;;;;;;;6.47;2.97;;;;;;;;;;5017322;28;20032;-78
2023/09/01 12:35:43;;;;;;;5.13;3.55;;;;;;;;;;5036602;28;20034;-78
2023/09/01 12:38:08;;;;;;;5.25;3.28;;;;;;;;;;5025597;28;20112;-78
2023/09/01 12:40:34;;;;;;;5.63;3.28;;;;;;;;;;5019903;28;20100;-77
2023/09/01 12:42:59;;;;;;;3.58;2.53;;;;;;;;;;5018854;28;20033;-78
2023/09/01 12:45:25;;;;;;;5.97;3.45;;;;;;;;;;5018523;28;20126;-78
2023/09/01 12:47:50;;;;;;;3.55;2.35;;;;;;;;;;5036375;28;20033;-78
2023/09/01 12:50:16;;;;;;;4.95;2.70;;;;;;;;;;5018408;28;20029;-78
2023/09/01 12:52:41;;;;;;;13.73;5.18;;;;;;;;;;5018313;28;20037;-78
2023/09/01 12:55:06;;;;;;;5.13;3.72;;;;;;;;;;5018660;28;20527;-78
2023/09/01 12:57:32;;;;;;;6.43;3.55;;;;;;;;;;5035912;28;20029;-78
2023/09/01 12:59:58;;;;;;;3.55;3.10;;;;;;;;;;5001131;28;20036;-78
2023/09/01 13:02:23;;;;;;;4.32;3.42;;;;;;;;;;5035247;28;20026;-78
2023/09/01 13:04:49;;;;;;;4.90;3.53;;;;;;;;;;5035225;28;20033;-79
2023/09/01 13:07:16;;;;;;;5.43;3.40;;;;;;;;;;5017478;28;20116;-78
2023/09/01 13:09:41;;;;;;;5.80;2.72;;;;;;;;;;5035896;28;20088;-79
2023/09/01 13:12:07;;;;;;;4.68;3.55;;;;;;;;;;5035946;28;20053;-78
2023/09/01 13:14:33;;;;;;;5.60;3.20;;;;;;;;;;5018505;28;20033;-79
2023/09/01 13:16:58;;;;;;;6.00;2.90;;;;;;;;;;5001191;28;20492;-79
2023/09/01 13:19:23;;;;;;;5.47;2.75;;;;;;;;;;5018022;28;20384;-79
2023/09/01 13:21:49;;;;;;;6.55;2.35;;;;;;;;;;5035839;28;20449;-78
2023/09/01 13:24:14;;;;;;;4.80;2.90;;;;;;;;;;5001542;28;20030;-79
2023/09/01 13:26:40;;;;;;;4.40;2.95;;;;;;;;;;5017823;28;20489;-79
2023/09/01 13:29:05;;;;;;;4.18;2.97;;;;;;;;;;5035780;28;20029;-79
2023/09/01 13:31:30;;;;;;;5.70;3.15;;;;;;;;;;5035231;28;20064;-79
2023/09/01 13:33:56;;;;;;;4.82;3.25;;;;;;;;;;5035590;28;20029;-79
2023/09/01 13:36:21;;;;;;;5.40;3.30;;;;;;;;;;5035481;28;20068;-79
2023/09/01 13:38:49;;;;;;;4.43;3.80;;;;;;;;;;5035247;28;20403;-79
2023/09/01 13:41:15;;;;;;;3.95;3.13;;;;;;;;;;5035200;28;20021;-79
2023/09/01 13:43:40;;;;;;;4.85;3.65;;;;;;;;;;5017804;28;20109;-79
2023/09/01 13:46:26;;;;;;;4.05;3.20;;;;;;;;;;5034962;28;20472;-79
2023/09/01 13:48:56;;;;;;;4.32;3.28;;;;;;;;;;5017830;28;20415;-79
2023/09/01 13:51:25;;;;;;;4.55;3.38;;;;;;;;;;5035394;28;20515;-79
2023/09/01 13:53:51;;;;;;;4.68;2.85;;;;;;;;;;5017448;28;20043;-79
2023/09/01 13:56:16;;;;;;;4.57;3.20;;;;;;;;;;5017379;28;20528;-78
2023/09/01 13:58:41;;;;;;;5.95;3.47;;;;;;;;;;5034971;28;20036;-78
2023/09/01 14:01:07;;;;;;;5.03;3.38;;;;;;;;;;5034744;28;20052;-78
2023/09/01 14:03:32;;;;;;;6.40;3.92;;;;;;;;;;5036756;28;20033;-78
2023/09/01 14:05:59;;;;;;;5.38;3.78;;;;;;;;;;5037397;28;20204;-78
2023/09/01 14:08:25;;;;;;;4.68;3.17;;;;;;;;;;5001733;28;20033;-79
2023/09/01 14:10:58;;;;;;;3.95;2.85;;;;;;;;;;5034360;28;20037;-78
2023/09/01 14:13:24;;;;;;;5.50;2.78;;;;;;;;;;5016818;28;20034;-78
2023/09/01 14:15:51;;;;;;;4.40;2.80;;;;;;;;;;5013402;28;20386;-78
2023/09/01 14:18:17;;;;;;;4.32;2.60;;;;;;;;;;5013562;28;20029;-78
2023/09/01 14:20:43;;;;;;;3.45;2.28;;;;;;;;;;4996973;28;20026;-78
2023/09/01 14:23:08;;;;;;;2.35;2.03;;;;;;;;;;5013502;28;20513;-78
2023/09/01 14:25:34;;;;;;;3.75;2.10;;;;;;;;;;5013614;28;20026;-78
2023/09/01 14:28:00;;;;;;;2.97;2.20;;;;;;;;;;5014655;28;20543;-78
2023/09/01 14:30:26;;;;;;;4.45;2.22;;;;;;;;;;5014558;28;20433;-78
2023/09/01 14:32:53;;;;;;;3.00;2.03;;;;;;;;;;4997076;28;20057;-78
2023/09/01 14:35:18;;;;;;;3.70;2.28;;;;;;;;;;5013830;28;20455;-78
2023/09/01 14:37:43;;;;;;;4.45;2.20;;;;;;;;;;5014636;28;20061;-79
2023/09/01 14:40:09;;;;;;;3.85;2.10;;;;;;;;;;5013782;28;20377;-78
2023/09/01 14:42:35;;;;;;;6.75;3.10;;;;;;;;;;4997293;28;20136;-79
2023/09/01 14:45:00;;;;;;;7.07;2.90;;;;;;;;;;5013628;28;20426;-79